sensor_id;sensor_type;location;lat;lon;timestamp;P1;durP1;ratioP1;P2;durP2;ratioP2
75820;SDS011;64454;51.984;9.838;2024-03-23T00:52:37;7.50;;;5.22;;
75820;SDS011;64454;51.984;9.838;2024-03-23T00:55:03;9.38;;;5.38;;
75820;SDS011;64454;51.984;9.838;2024-03-23T00:57:29;9.75;;;5.78;;
75820;SDS011;64454;51.984;9.838;2024-03-23T00:59:55;7.43;;;5.10;;
75820;SDS011;64454;51.984;9.838;2024-03-23T01:02:21;8.80;;;5.90;;
75820;SDS011;64454;51.984;9.838;2024-03-23T01:04:47;9.32;;;5.60;;
75820;SDS011;64454;51.984;9.838;2024-03-23T01:07:13;10.32;;;5.97;;
75820;SDS011;64454;51.984;9.838;2024-03-23T01:09:39;9.15;;;5.57;;
75820;SDS011;64454;51.984;9.838;2024-03-23T01:12:05;12.82;;;6.20;;
75820;SDS011;64454;51.984;9.838;2024-03-23T01:14:32;9.10;;;5.53;;
75820;SDS011;64454;51.984;9.838;2024-03-23T01:16:57;10.25;;;6.07;;
75820;SDS011;64454;51.984;9.838;2024-03-23T01:19:23;8.18;;;5.88;;
75820;SDS011;64454;51.984;9.838;2024-03-23T01:21:49;8.20;;;5.27;;
75820;SDS011;64454;51.984;9.838;2024-03-23T01:24:15;12.00;;;5.60;;
75820;SDS011;64454;51.984;9.838;2024-03-23T01:26:42;10.87;;;6.07;;
75820;SDS011;64454;51.984;9.838;2024-03-23T01:29:08;10.30;;;5.15;;
75820;SDS011;64454;51.984;9.838;2024-03-23T01:31:34;9.10;;;5.07;;
75820;SDS011;64454;51.984;9.838;2024-03-23T01:34:00;16.42;;;6.35;;
75820;SDS011;64454;51.984;9.838;2024-03-23T01:36:26;9.53;;;5.10;;
75820;SDS011;64454;51.984;9.838;2024-03-23T01:38:52;8.90;;;4.90;;
75820;SDS011;64454;51.984;9.838;2024-03-23T01:41:18;8.45;;;5.25;;
75820;SDS011;64454;51.984;9.838;2024-03-23T01:43:45;7.65;;;4.22;;
75820;SDS011;64454;51.984;9.838;2024-03-23T01:46:10;10.40;;;4.97;;
75820;SDS011;64454;51.984;9.838;2024-03-23T01:48:37;6.97;;;4.50;;
75820;SDS011;64454;51.984;9.838;2024-03-23T01:51:03;9.07;;;4.90;;
75820;SDS011;64454;51.984;9.838;2024-03-23T01:53:30;8.45;;;5.00;;
75820;SDS011;64454;51.984;9.838;2024-03-23T01:55:56;8.15;;;5.15;;
75820;SDS011;64454;51.984;9.838;2024-03-23T01:58:22;7.60;;;4.90;;
75820;SDS011;64454;51.984;9.838;2024-03-23T02:00:48;10.75;;;5.13;;
75820;SDS011;64454;51.984;9.838;2024-03-23T02:05:58;7.70;;;4.28;;
75820;SDS011;64454;51.984;9.838;2024-03-23T02:08:24;8.85;;;4.95;;
75820;SDS011;64454;51.984;9.838;2024-03-23T02:10:50;8.48;;;4.57;;
75820;SDS011;64454;51.984;9.838;2024-03-23T02:13:17;13.35;;;5.18;;
75820;SDS011;64454;51.984;9.838;2024-03-23T02:15:44;8.55;;;5.00;;
75820;SDS011;64454;51.984;9.838;2024-03-23T02:18:11;7.07;;;4.43;;
75820;SDS011;64454;51.984;9.838;2024-03-23T02:20:37;11.02;;;4.90;;
75820;SDS011;64454;51.984;9.838;2024-03-23T02:23:04;9.40;;;5.30;;
75820;SDS011;64454;51.984;9.838;2024-03-23T02:25:31;7.87;;;4.60;;
75820;SDS011;64454;51.984;9.838;2024-03-23T02:27:57;10.05;;;5.00;;
75820;SDS011;64454;51.984;9.838;2024-03-23T02:30:24;9.40;;;5.20;;
75820;SDS011;64454;51.984;9.838;2024-03-23T02:32:50;9.90;;;4.40;;
75820;SDS011;64454;51.984;9.838;2024-03-23T02:35:16;7.95;;;4.72;;
75820;SDS011;64454;51.984;9.838;2024-03-23T02:37:42;8.98;;;4.30;;
75820;SDS011;64454;51.984;9.838;2024-03-23T02:40:08;8.77;;;4.28;;
75820;SDS011;64454;51.984;9.838;2024-03-23T02:42:35;8.25;;;4.30;;
75820;SDS011;64454;51.984;9.838;2024-03-23T02:45:00;5.97;;;3.90;;
75820;SDS011;64454;51.984;9.838;2024-03-23T02:47:29;7.18;;;4.30;;
75820;SDS011;64454;51.984;9.838;2024-03-23T02:49:55;11.10;;;4.70;;
75820;SDS011;64454;51.984;9.838;2024-03-23T02:52:21;5.50;;;3.57;;
75820;SDS011;64454;51.984;9.838;2024-03-23T02:54:47;6.03;;;3.90;;
75820;SDS011;64454;51.984;9.838;2024-03-23T02:57:14;5.68;;;3.92;;
75820;SDS011;64454;51.984;9.838;2024-03-23T02:59:40;6.70;;;4.00;;
75820;SDS011;64454;51.984;9.838;2024-03-23T03:02:06;6.60;;;4.50;;
75820;SDS011;64454;51.984;9.838;2024-03-23T03:04:32;8.40;;;4.40;;
75820;SDS011;64454;51.984;9.838;2024-03-23T03:06:58;6.90;;;3.90;;
75820;SDS011;64454;51.984;9.838;2024-03-23T03:09:25;7.18;;;4.00;;
75820;SDS011;64454;51.984;9.838;2024-03-23T03:11:51;8.20;;;4.30;;
75820;SDS011;64454;51.984;9.838;2024-03-23T03:14:17;7.13;;;4.28;;
75820;SDS011;64454;51.984;9.838;2024-03-23T03:16:43;7.78;;;3.80;;
75820;SDS011;64454;51.984;9.838;2024-03-23T03:19:09;7.80;;;4.22;;
75820;SDS011;64454;51.984;9.838;2024-03-23T03:21:35;6.93;;;4.32;;
75820;SDS011;64454;51.984;9.838;2024-03-23T03:24:02;7.35;;;4.45;;
75820;SDS011;64454;51.984;9.838;2024-03-23T03:26:29;7.33;;;3.97;;
75820;SDS011;64454;51.984;9.838;2024-03-23T03:28:55;8.88;;;4.32;;
75820;SDS011;64454;51.984;9.838;2024-03-23T03:31:22;7.37;;;4.37;;
75820;SDS011;64454;51.984;9.838;2024-03-23T03:33:49;7.43;;;4.22;;
75820;SDS011;64454;51.984;9.838;2024-03-23T03:36:15;7.43;;;4.82;;
75820;SDS011;64454;51.984;9.838;2024-03-23T03:38:41;6.00;;;3.80;;
75820;SDS011;64454;51.984;9.838;2024-03-23T03:41:07;7.18;;;4.43;;
75820;SDS011;64454;51.984;9.838;2024-03-23T03:43:33;5.65;;;4.05;;
75820;SDS011;64454;51.984;9.838;2024-03-23T03:46:00;7.00;;;4.20;;
75820;SDS011;64454;51.984;9.838;2024-03-23T03:48:28;8.60;;;4.40;;
75820;SDS011;64454;51.984;9.838;2024-03-23T03:50:54;6.20;;;4.03;;
75820;SDS011;64454;51.984;9.838;2024-03-23T03:53:20;7.65;;;4.30;;
75820;SDS011;64454;51.984;9.838;2024-03-23T03:55:46;10.00;;;4.50;;
75820;SDS011;64454;51.984;9.838;2024-03-23T03:58:12;7.25;;;3.72;;
75820;SDS011;64454;51.984;9.838;2024-03-23T04:00:38;4.75;;;3.75;;
75820;SDS011;64454;51.984;9.838;2024-03-23T04:03:04;8.38;;;4.80;;
75820;SDS011;64454;51.984;9.838;2024-03-23T04:05:31;9.18;;;4.03;;
75820;SDS011;64454;51.984;9.838;2024-03-23T04:07:57;7.75;;;3.75;;
75820;SDS011;64454;51.984;9.838;2024-03-23T04:10:23;7.07;;;4.28;;
75820;SDS011;64454;51.984;9.838;2024-03-23T04:12:50;8.98;;;4.50;;
75820;SDS011;64454;51.984;9.838;2024-03-23T04:15:15;7.47;;;4.73;;
75820;SDS011;64454;51.984;9.838;2024-03-23T04:17:42;7.63;;;4.10;;
75820;SDS011;64454;51.984;9.838;2024-03-23T04:20:08;6.10;;;3.80;;
75820;SDS011;64454;51.984;9.838;2024-03-23T04:22:38;5.77;;;3.30;;
75820;SDS011;64454;51.984;9.838;2024-03-23T04:25:04;8.60;;;3.90;;
75820;SDS011;64454;51.984;9.838;2024-03-23T04:27:31;4.05;;;2.67;;
75820;SDS011;64454;51.984;9.838;2024-03-23T04:29:57;5.97;;;2.60;;
75820;SDS011;64454;51.984;9.838;2024-03-23T04:32:25;3.85;;;2.65;;
75820;SDS011;64454;51.984;9.838;2024-03-23T04:34:52;6.05;;;2.38;;
75820;SDS011;64454;51.984;9.838;2024-03-23T04:37:19;5.90;;;3.00;;
75820;SDS011;64454;51.984;9.838;2024-03-23T04:39:46;6.43;;;3.13;;
75820;SDS011;64454;51.984;9.838;2024-03-23T04:42:14;8.60;;;2.80;;
75820;SDS011;64454;51.984;9.838;2024-03-23T04:44:40;4.55;;;2.70;;
75820;SDS011;64454;51.984;9.838;2024-03-23T04:47:07;3.80;;;2.33;;
75820;SDS011;64454;51.984;9.838;2024-03-23T04:49:33;5.53;;;2.25;;
75820;SDS011;64454;51.984;9.838;2024-03-23T04:52:01;3.63;;;2.00;;
75820;SDS011;64454;51.984;9.838;2024-03-23T04:54:28;3.22;;;2.00;;
75820;SDS011;64454;51.984;9.838;2024-03-23T04:56:55;6.97;;;2.50;;
75820;SDS011;64454;51.984;9.838;2024-03-23T04:59:21;6.90;;;2.40;;
75820;SDS011;64454;51.984;9.838;2024-03-23T05:01:47;4.13;;;2.13;;
75820;SDS011;64454;51.984;9.838;2024-03-23T05:04:13;6.13;;;2.10;;
75820;SDS011;64454;51.984;9.838;2024-03-23T05:06:39;4.60;;;2.00;;
75820;SDS011;64454;51.984;9.838;2024-03-23T05:09:04;5.60;;;2.30;;
75820;SDS011;64454;51.984;9.838;2024-03-23T05:11:32;5.07;;;2.20;;
75820;SDS011;64454;51.984;9.838;2024-03-23T05:13:58;4.82;;;1.90;;
75820;SDS011;64454;51.984;9.838;2024-03-23T05:16:24;4.32;;;1.60;;
75820;SDS011;64454;51.984;9.838;2024-03-23T05:18:51;3.80;;;1.60;;
75820;SDS011;64454;51.984;9.838;2024-03-23T05:21:17;4.10;;;2.00;;
75820;SDS011;64454;51.984;9.838;2024-03-23T05:23:43;4.10;;;2.10;;
75820;SDS011;64454;51.984;9.838;2024-03-23T05:26:09;5.45;;;2.08;;
75820;SDS011;64454;51.984;9.838;2024-03-23T05:28:35;6.18;;;1.80;;
75820;SDS011;64454;51.984;9.838;2024-03-23T05:31:02;4.50;;;1.73;;
75820;SDS011;64454;51.984;9.838;2024-03-23T05:33:28;4.70;;;1.77;;
75820;SDS011;64454;51.984;9.838;2024-03-23T05:35:57;4.65;;;1.90;;
75820;SDS011;64454;51.984;9.838;2024-03-23T05:38:25;5.15;;;1.70;;
75820;SDS011;64454;51.984;9.838;2024-03-23T05:40:53;6.00;;;1.92;;
75820;SDS011;64454;51.984;9.838;2024-03-23T05:43:19;5.22;;;1.80;;
75820;SDS011;64454;51.984;9.838;2024-03-23T05:45:46;4.53;;;1.83;;
75820;SDS011;64454;51.984;9.838;2024-03-23T05:48:19;3.50;;;1.73;;
75820;SDS011;64454;51.984;9.838;2024-03-23T05:50:45;3.70;;;1.90;;
75820;SDS011;64454;51.984;9.838;2024-03-23T05:53:11;3.92;;;2.00;;
75820;SDS011;64454;51.984;9.838;2024-03-23T05:55:38;6.95;;;2.50;;
75820;SDS011;64454;51.984;9.838;2024-03-23T05:58:03;6.03;;;2.30;;
75820;SDS011;64454;51.984;9.838;2024-03-23T06:00:30;4.97;;;2.10;;
75820;SDS011;64454;51.984;9.838;2024-03-23T06:02:55;5.30;;;1.80;;
75820;SDS011;64454;51.984;9.838;2024-03-23T06:05:42;3.53;;;1.70;;
75820;SDS011;64454;51.984;9.838;2024-03-23T06:08:28;6.40;;;2.30;;
75820;SDS011;64454;51.984;9.838;2024-03-23T06:11:15;3.63;;;1.77;;
75820;SDS011;64454;51.984;9.838;2024-03-23T06:14:01;5.20;;;2.05;;
75820;SDS011;64454;51.984;9.838;2024-03-23T06:16:27;4.30;;;2.20;;
75820;SDS011;64454;51.984;9.838;2024-03-23T06:18:53;3.40;;;2.63;;
75820;SDS011;64454;51.984;9.838;2024-03-23T06:21:20;3.92;;;2.15;;
75820;SDS011;64454;51.984;9.838;2024-03-23T06:23:51;6.10;;;1.90;;
75820;SDS011;64454;51.984;9.838;2024-03-23T06:26:17;4.55;;;1.75;;
75820;SDS011;64454;51.984;9.838;2024-03-23T06:28:44;5.13;;;2.00;;
75820;SDS011;64454;51.984;9.838;2024-03-23T06:31:10;5.30;;;2.45;;
75820;SDS011;64454;51.984;9.838;2024-03-23T06:33:36;4.60;;;2.00;;
75820;SDS011;64454;51.984;9.838;2024-03-23T06:36:02;4.07;;;1.75;;
75820;SDS011;64454;51.984;9.838;2024-03-23T06:38:29;5.75;;;2.10;;
75820;SDS011;64454;51.984;9.838;2024-03-23T06:40:55;4.45;;;2.47;;
75820;SDS011;64454;51.984;9.838;2024-03-23T06:43:21;6.50;;;2.28;;
75820;SDS011;64454;51.984;9.838;2024-03-23T06:45:52;5.40;;;2.10;;
75820;SDS011;64454;51.984;9.838;2024-03-23T06:48:18;3.75;;;2.00;;
75820;SDS011;64454;51.984;9.838;2024-03-23T06:50:44;7.35;;;2.75;;
75820;SDS011;64454;51.984;9.838;2024-03-23T06:53:11;2.90;;;1.60;;
75820;SDS011;64454;51.984;9.838;2024-03-23T06:55:38;6.32;;;2.63;;
75820;SDS011;64454;51.984;9.838;2024-03-23T06:58:04;5.45;;;2.00;;
75820;SDS011;64454;51.984;9.838;2024-03-23T07:00:30;4.68;;;2.58;;
75820;SDS011;64454;51.984;9.838;2024-03-23T07:02:57;6.93;;;2.50;;
75820;SDS011;64454;51.984;9.838;2024-03-23T07:05:23;6.32;;;1.80;;
75820;SDS011;64454;51.984;9.838;2024-03-23T07:07:49;6.32;;;2.00;;
75820;SDS011;64454;51.984;9.838;2024-03-23T07:10:15;4.05;;;1.60;;
75820;SDS011;64454;51.984;9.838;2024-03-23T07:12:41;3.65;;;1.85;;
75820;SDS011;64454;51.984;9.838;2024-03-23T07:15:08;3.38;;;1.65;;
75820;SDS011;64454;51.984;9.838;2024-03-23T07:17:34;5.68;;;1.77;;
75820;SDS011;64454;51.984;9.838;2024-03-23T07:20:00;4.60;;;1.80;;
75820;SDS011;64454;51.984;9.838;2024-03-23T07:22:28;6.20;;;1.97;;
75820;SDS011;64454;51.984;9.838;2024-03-23T07:24:55;4.88;;;2.10;;
75820;SDS011;64454;51.984;9.838;2024-03-23T07:27:20;6.07;;;2.42;;
75820;SDS011;64454;51.984;9.838;2024-03-23T07:29:49;5.13;;;2.30;;
75820;SDS011;64454;51.984;9.838;2024-03-23T07:32:15;4.55;;;1.40;;
75820;SDS011;64454;51.984;9.838;2024-03-23T07:34:41;4.50;;;1.77;;
75820;SDS011;64454;51.984;9.838;2024-03-23T07:37:09;5.28;;;1.88;;
75820;SDS011;64454;51.984;9.838;2024-03-23T07:39:35;5.45;;;1.90;;
75820;SDS011;64454;51.984;9.838;2024-03-23T07:42:01;4.35;;;1.85;;
75820;SDS011;64454;51.984;9.838;2024-03-23T07:44:27;3.53;;;1.50;;
75820;SDS011;64454;51.984;9.838;2024-03-23T07:46:54;4.78;;;2.22;;
75820;SDS011;64454;51.984;9.838;2024-03-23T07:49:20;5.22;;;2.42;;
75820;SDS011;64454;51.984;9.838;2024-03-23T07:51:46;5.63;;;2.25;;
75820;SDS011;64454;51.984;9.838;2024-03-23T07:54:12;6.20;;;2.05;;
75820;SDS011;64454;51.984;9.838;2024-03-23T07:56:38;4.93;;;2.10;;
75820;SDS011;64454;51.984;9.838;2024-03-23T07:59:04;4.03;;;2.03;;
75820;SDS011;64454;51.984;9.838;2024-03-23T08:01:30;7.70;;;2.60;;
75820;SDS011;64454;51.984;9.838;2024-03-23T08:03:56;3.20;;;1.70;;
75820;SDS011;64454;51.984;9.838;2024-03-23T08:06:22;4.80;;;2.03;;
75820;SDS011;64454;51.984;9.838;2024-03-23T08:08:51;4.25;;;2.70;;
75820;SDS011;64454;51.984;9.838;2024-03-23T08:11:24;6.57;;;2.67;;
75820;SDS011;64454;51.984;9.838;2024-03-23T08:13:51;7.05;;;2.50;;
75820;SDS011;64454;51.984;9.838;2024-03-23T08:16:16;5.25;;;2.58;;
75820;SDS011;64454;51.984;9.838;2024-03-23T08:18:43;8.20;;;2.55;;
75820;SDS011;64454;51.984;9.838;2024-03-23T08:21:09;4.70;;;2.20;;
75820;SDS011;64454;51.984;9.838;2024-03-23T08:23:36;7.80;;;2.30;;
75820;SDS011;64454;51.984;9.838;2024-03-23T08:26:03;5.38;;;2.38;;
75820;SDS011;64454;51.984;9.838;2024-03-23T08:28:31;4.47;;;2.17;;
75820;SDS011;64454;51.984;9.838;2024-03-23T08:31:00;5.95;;;2.30;;
75820;SDS011;64454;51.984;9.838;2024-03-23T08:33:27;5.28;;;2.80;;
75820;SDS011;64454;51.984;9.838;2024-03-23T08:35:54;7.82;;;3.22;;
75820;SDS011;64454;51.984;9.838;2024-03-23T08:38:21;6.90;;;3.30;;
75820;SDS011;64454;51.984;9.838;2024-03-23T08:40:48;7.72;;;2.63;;
75820;SDS011;64454;51.984;9.838;2024-03-23T08:43:22;9.27;;;3.40;;
75820;SDS011;64454;51.984;9.838;2024-03-23T08:45:48;11.70;;;4.57;;
75820;SDS011;64454;51.984;9.838;2024-03-23T08:48:14;8.13;;;3.80;;
75820;SDS011;64454;51.984;9.838;2024-03-23T08:50:41;7.47;;;3.25;;
75820;SDS011;64454;51.984;9.838;2024-03-23T08:53:07;12.60;;;3.43;;
75820;SDS011;64454;51.984;9.838;2024-03-23T08:55:34;6.78;;;3.45;;
75820;SDS011;64454;51.984;9.838;2024-03-23T08:58:00;5.03;;;2.72;;
75820;SDS011;64454;51.984;9.838;2024-03-23T09:00:26;9.90;;;3.50;;
75820;SDS011;64454;51.984;9.838;2024-03-23T09:02:52;6.70;;;3.40;;
75820;SDS011;64454;51.984;9.838;2024-03-23T09:05:18;7.97;;;3.50;;
75820;SDS011;64454;51.984;9.838;2024-03-23T09:07:44;7.07;;;2.97;;
75820;SDS011;64454;51.984;9.838;2024-03-23T09:10:10;6.80;;;3.10;;
75820;SDS011;64454;51.984;9.838;2024-03-23T09:12:37;8.27;;;3.20;;
75820;SDS011;64454;51.984;9.838;2024-03-23T09:15:03;9.18;;;3.95;;
75820;SDS011;64454;51.984;9.838;2024-03-23T09:17:30;5.68;;;3.20;;
75820;SDS011;64454;51.984;9.838;2024-03-23T09:19:56;6.25;;;3.35;;
75820;SDS011;64454;51.984;9.838;2024-03-23T09:22:22;10.18;;;3.70;;
75820;SDS011;64454;51.984;9.838;2024-03-23T09:24:48;8.02;;;3.22;;
75820;SDS011;64454;51.984;9.838;2024-03-23T09:27:14;9.55;;;3.17;;
75820;SDS011;64454;51.984;9.838;2024-03-23T09:29:40;8.35;;;3.17;;
75820;SDS011;64454;51.984;9.838;2024-03-23T09:32:06;10.37;;;4.23;;
75820;SDS011;64454;51.984;9.838;2024-03-23T09:34:33;7.63;;;3.77;;
75820;SDS011;64454;51.984;9.838;2024-03-23T09:36:59;9.07;;;3.80;;
75820;SDS011;64454;51.984;9.838;2024-03-23T09:39:25;5.72;;;3.70;;
75820;SDS011;64454;51.984;9.838;2024-03-23T09:41:55;9.37;;;4.10;;
75820;SDS011;64454;51.984;9.838;2024-03-23T09:44:22;8.23;;;3.77;;
75820;SDS011;64454;51.984;9.838;2024-03-23T09:46:51;9.27;;;3.80;;
75820;SDS011;64454;51.984;9.838;2024-03-23T09:49:17;6.95;;;3.95;;
75820;SDS011;64454;51.984;9.838;2024-03-23T09:51:44;6.97;;;4.32;;
75820;SDS011;64454;51.984;9.838;2024-03-23T09:54:10;13.93;;;5.20;;
75820;SDS011;64454;51.984;9.838;2024-03-23T09:56:36;10.75;;;5.05;;
75820;SDS011;64454;51.984;9.838;2024-03-23T09:59:02;8.38;;;4.43;;
75820;SDS011;64454;51.984;9.838;2024-03-23T10:01:29;11.20;;;4.70;;
75820;SDS011;64454;51.984;9.838;2024-03-23T10:03:56;11.23;;;4.82;;
75820;SDS011;64454;51.984;9.838;2024-03-23T10:06:22;11.38;;;4.93;;
75820;SDS011;64454;51.984;9.838;2024-03-23T10:08:50;9.93;;;4.32;;
75820;SDS011;64454;51.984;9.838;2024-03-23T10:11:16;7.90;;;4.63;;
75820;SDS011;64454;51.984;9.838;2024-03-23T10:13:44;8.45;;;4.50;;
75820;SDS011;64454;51.984;9.838;2024-03-23T10:16:11;10.05;;;4.50;;
75820;SDS011;64454;51.984;9.838;2024-03-23T10:18:45;8.13;;;4.30;;
75820;SDS011;64454;51.984;9.838;2024-03-23T10:21:12;12.13;;;4.70;;
75820;SDS011;64454;51.984;9.838;2024-03-23T10:23:40;8.18;;;4.28;;
75820;SDS011;64454;51.984;9.838;2024-03-23T10:26:14;8.88;;;4.25;;
75820;SDS011;64454;51.984;9.838;2024-03-23T10:28:52;7.07;;;3.88;;
75820;SDS011;64454;51.984;9.838;2024-03-23T10:31:23;5.88;;;2.92;;
75820;SDS011;64454;51.984;9.838;2024-03-23T10:33:49;4.70;;;2.53;;
75820;SDS011;64454;51.984;9.838;2024-03-23T10:36:15;9.77;;;4.00;;
75820;SDS011;64454;51.984;9.838;2024-03-23T10:38:44;8.85;;;3.60;;
75820;SDS011;64454;51.984;9.838;2024-03-23T10:41:10;7.55;;;4.57;;
75820;SDS011;64454;51.984;9.838;2024-03-23T10:43:36;8.70;;;3.90;;
75820;SDS011;64454;51.984;9.838;2024-03-23T10:46:02;6.25;;;2.80;;
75820;SDS011;64454;51.984;9.838;2024-03-23T10:48:29;12.77;;;5.22;;
75820;SDS011;64454;51.984;9.838;2024-03-23T10:50:56;6.45;;;3.53;;
75820;SDS011;64454;51.984;9.838;2024-03-23T10:53:25;7.45;;;4.30;;
75820;SDS011;64454;51.984;9.838;2024-03-23T10:55:52;9.13;;;5.03;;
75820;SDS011;64454;51.984;9.838;2024-03-23T10:58:21;7.03;;;2.90;;
75820;SDS011;64454;51.984;9.838;2024-03-23T11:00:54;4.85;;;2.70;;
75820;SDS011;64454;51.984;9.838;2024-03-23T11:03:30;10.77;;;3.28;;
75820;SDS011;64454;51.984;9.838;2024-03-23T11:05:58;5.18;;;2.83;;
75820;SDS011;64454;51.984;9.838;2024-03-23T11:08:32;4.78;;;2.50;;
75820;SDS011;64454;51.984;9.838;2024-03-23T11:11:17;6.45;;;2.85;;
75820;SDS011;64454;51.984;9.838;2024-03-23T11:13:44;5.50;;;2.90;;
75820;SDS011;64454;51.984;9.838;2024-03-23T11:16:13;5.95;;;3.10;;
75820;SDS011;64454;51.984;9.838;2024-03-23T11:18:46;5.00;;;2.43;;
75820;SDS011;64454;51.984;9.838;2024-03-23T11:21:13;2.47;;;1.50;;
75820;SDS011;64454;51.984;9.838;2024-03-23T11:24:19;2.40;;;1.20;;
75820;SDS011;64454;51.984;9.838;2024-03-23T11:26:45;1.55;;;1.00;;
75820;SDS011;64454;51.984;9.838;2024-03-23T11:29:12;3.60;;;1.60;;
75820;SDS011;64454;51.984;9.838;2024-03-23T11:31:45;3.78;;;1.40;;
75820;SDS011;64454;51.984;9.838;2024-03-23T11:34:12;3.35;;;1.80;;
75820;SDS011;64454;51.984;9.838;2024-03-23T11:36:40;3.47;;;1.67;;
75820;SDS011;64454;51.984;9.838;2024-03-23T11:39:12;4.78;;;2.10;;
75820;SDS011;64454;51.984;9.838;2024-03-23T11:41:47;3.73;;;1.40;;
75820;SDS011;64454;51.984;9.838;2024-03-23T11:44:16;3.85;;;1.70;;
75820;SDS011;64454;51.984;9.838;2024-03-23T11:46:43;2.30;;;1.20;;
75820;SDS011;64454;51.984;9.838;2024-03-23T11:49:19;2.03;;;1.10;;
75820;SDS011;64454;51.984;9.838;2024-03-23T11:51:48;2.28;;;0.90;;
75820;SDS011;64454;51.984;9.838;2024-03-23T11:54:15;1.70;;;0.90;;
75820;SDS011;64454;51.984;9.838;2024-03-23T11:56:41;2.50;;;1.00;;
75820;SDS011;64454;51.984;9.838;2024-03-23T11:59:33;2.33;;;1.20;;
75820;SDS011;64454;51.984;9.838;2024-03-23T12:02:05;1.77;;;1.00;;
75820;SDS011;64454;51.984;9.838;2024-03-23T12:04:32;2.13;;;1.10;;
75820;SDS011;64454;51.984;9.838;2024-03-23T12:07:09;4.20;;;1.70;;
75820;SDS011;64454;51.984;9.838;2024-03-23T12:09:36;3.95;;;1.27;;
75820;SDS011;64454;51.984;9.838;2024-03-23T12:12:06;4.28;;;1.50;;
75820;SDS011;64454;51.984;9.838;2024-03-23T12:14:39;4.50;;;1.90;;
75820;SDS011;64454;51.984;9.838;2024-03-23T12:17:12;3.70;;;2.00;;
75820;SDS011;64454;51.984;9.838;2024-03-23T12:19:40;2.97;;;1.40;;
75820;SDS011;64454;51.984;9.838;2024-03-23T12:22:07;4.45;;;2.08;;
75820;SDS011;64454;51.984;9.838;2024-03-23T12:24:34;4.68;;;2.33;;
75820;SDS011;64454;51.984;9.838;2024-03-23T12:27:00;4.05;;;2.35;;
75820;SDS011;64454;51.984;9.838;2024-03-23T12:29:29;4.50;;;1.98;;
75820;SDS011;64454;51.984;9.838;2024-03-23T12:31:56;4.90;;;2.10;;
75820;SDS011;64454;51.984;9.838;2024-03-23T12:34:24;3.30;;;2.20;;
75820;SDS011;64454;51.984;9.838;2024-03-23T12:36:50;4.88;;;1.83;;
75820;SDS011;64454;51.984;9.838;2024-03-23T12:39:16;4.15;;;1.90;;
75820;SDS011;64454;51.984;9.838;2024-03-23T12:41:43;3.43;;;1.60;;
75820;SDS011;64454;51.984;9.838;2024-03-23T12:44:09;4.13;;;1.63;;
75820;SDS011;64454;51.984;9.838;2024-03-23T12:46:37;3.28;;;1.70;;
75820;SDS011;64454;51.984;9.838;2024-03-23T12:49:03;4.32;;;1.80;;
75820;SDS011;64454;51.984;9.838;2024-03-23T12:51:30;2.05;;;1.20;;
75820;SDS011;64454;51.984;9.838;2024-03-23T12:53:56;2.40;;;1.40;;
75820;SDS011;64454;51.984;9.838;2024-03-23T12:56:22;2.70;;;1.52;;
75820;SDS011;64454;51.984;9.838;2024-03-23T12:58:48;4.00;;;1.90;;
75820;SDS011;64454;51.984;9.838;2024-03-23T13:01:16;1.80;;;1.07;;
75820;SDS011;64454;51.984;9.838;2024-03-23T13:03:43;2.75;;;1.27;;
75820;SDS011;64454;51.984;9.838;2024-03-23T13:06:11;2.22;;;1.20;;
75820;SDS011;64454;51.984;9.838;2024-03-23T13:08:37;4.10;;;1.20;;
75820;SDS011;64454;51.984;9.838;2024-03-23T13:11:03;2.85;;;1.35;;
75820;SDS011;64454;51.984;9.838;2024-03-23T13:13:29;1.77;;;1.00;;
75820;SDS011;64454;51.984;9.838;2024-03-23T13:15:56;3.40;;;1.60;;
75820;SDS011;64454;51.984;9.838;2024-03-23T13:18:22;3.88;;;1.50;;
75820;SDS011;64454;51.984;9.838;2024-03-23T13:20:49;3.00;;;1.40;;
75820;SDS011;64454;51.984;9.838;2024-03-23T13:23:15;4.10;;;1.50;;
75820;SDS011;64454;51.984;9.838;2024-03-23T13:25:41;4.77;;;1.50;;
75820;SDS011;64454;51.984;9.838;2024-03-23T13:28:15;4.72;;;1.77;;
75820;SDS011;64454;51.984;9.838;2024-03-23T13:30:49;2.53;;;1.90;;
75820;SDS011;64454;51.984;9.838;2024-03-23T13:33:16;2.47;;;1.33;;
75820;SDS011;64454;51.984;9.838;2024-03-23T13:35:48;3.20;;;1.42;;
75820;SDS011;64454;51.984;9.838;2024-03-23T13:38:15;2.35;;;1.40;;
75820;SDS011;64454;51.984;9.838;2024-03-23T13:40:48;4.27;;;2.30;;
75820;SDS011;64454;51.984;9.838;2024-03-23T13:43:18;3.25;;;1.67;;
75820;SDS011;64454;51.984;9.838;2024-03-23T13:45:44;2.72;;;1.30;;
75820;SDS011;64454;51.984;9.838;2024-03-23T13:48:11;3.00;;;1.30;;
75820;SDS011;64454;51.984;9.838;2024-03-23T13:50:37;4.30;;;1.50;;
75820;SDS011;64454;51.984;9.838;2024-03-23T13:53:04;1.60;;;1.40;;
75820;SDS011;64454;51.984;9.838;2024-03-23T13:55:29;3.20;;;1.30;;
75820;SDS011;64454;51.984;9.838;2024-03-23T13:57:56;3.53;;;1.90;;
75820;SDS011;64454;51.984;9.838;2024-03-23T14:00:22;3.70;;;1.70;;
75820;SDS011;64454;51.984;9.838;2024-03-23T14:02:49;6.60;;;2.40;;
75820;SDS011;64454;51.984;9.838;2024-03-23T14:05:14;3.35;;;2.03;;
75820;SDS011;64454;51.984;9.838;2024-03-23T14:07:40;3.00;;;1.40;;
75820;SDS011;64454;51.984;9.838;2024-03-23T14:10:07;2.07;;;1.50;;
75820;SDS011;64454;51.984;9.838;2024-03-23T14:12:35;2.55;;;1.20;;
75820;SDS011;64454;51.984;9.838;2024-03-23T14:15:03;2.67;;;1.40;;
75820;SDS011;64454;51.984;9.838;2024-03-23T14:17:31;4.28;;;2.08;;
75820;SDS011;64454;51.984;9.838;2024-03-23T14:19:57;1.90;;;1.20;;
75820;SDS011;64454;51.984;9.838;2024-03-23T14:22:25;2.80;;;1.00;;
75820;SDS011;64454;51.984;9.838;2024-03-23T14:24:52;1.98;;;1.08;;
75820;SDS011;64454;51.984;9.838;2024-03-23T14:27:18;1.63;;;0.90;;
75820;SDS011;64454;51.984;9.838;2024-03-23T14:29:45;7.20;;;1.80;;
75820;SDS011;64454;51.984;9.838;2024-03-23T14:32:12;2.90;;;1.50;;
75820;SDS011;64454;51.984;9.838;2024-03-23T14:34:37;2.80;;;1.00;;
75820;SDS011;64454;51.984;9.838;2024-03-23T14:37:04;4.10;;;1.70;;
75820;SDS011;64454;51.984;9.838;2024-03-23T14:39:31;2.13;;;1.42;;
75820;SDS011;64454;51.984;9.838;2024-03-23T14:41:59;1.90;;;1.10;;
75820;SDS011;64454;51.984;9.838;2024-03-23T14:44:26;2.53;;;1.70;;
75820;SDS011;64454;51.984;9.838;2024-03-23T14:46:53;2.20;;;1.80;;
75820;SDS011;64454;51.984;9.838;2024-03-23T14:49:20;2.08;;;1.33;;
75820;SDS011;64454;51.984;9.838;2024-03-23T14:51:46;2.53;;;1.27;;
75820;SDS011;64454;51.984;9.838;2024-03-23T14:54:12;4.68;;;1.52;;
75820;SDS011;64454;51.984;9.838;2024-03-23T14:56:39;4.43;;;1.30;;
75820;SDS011;64454;51.984;9.838;2024-03-23T14:59:04;2.50;;;1.10;;
75820;SDS011;64454;51.984;9.838;2024-03-23T15:01:32;2.90;;;1.20;;
75820;SDS011;64454;51.984;9.838;2024-03-23T15:03:59;2.28;;;1.13;;
75820;SDS011;64454;51.984;9.838;2024-03-23T15:06:25;3.10;;;1.20;;
75820;SDS011;64454;51.984;9.838;2024-03-23T15:08:51;2.90;;;1.40;;
75820;SDS011;64454;51.984;9.838;2024-03-23T15:11:17;2.47;;;1.10;;
75820;SDS011;64454;51.984;9.838;2024-03-23T15:13:44;1.38;;;0.95;;
75820;SDS011;64454;51.984;9.838;2024-03-23T15:16:16;2.00;;;1.10;;
75820;SDS011;64454;51.984;9.838;2024-03-23T15:18:45;1.45;;;0.80;;
75820;SDS011;64454;51.984;9.838;2024-03-23T15:21:11;1.20;;;0.70;;
75820;SDS011;64454;51.984;9.838;2024-03-23T15:23:39;1.27;;;0.73;;
75820;SDS011;64454;51.984;9.838;2024-03-23T15:26:07;1.40;;;0.60;;
75820;SDS011;64454;51.984;9.838;2024-03-23T15:28:33;1.30;;;0.70;;
75820;SDS011;64454;51.984;9.838;2024-03-23T15:31:03;1.77;;;0.60;;
75820;SDS011;64454;51.984;9.838;2024-03-23T15:33:29;1.65;;;0.77;;
75820;SDS011;64454;51.984;9.838;2024-03-23T15:35:58;1.60;;;0.80;;
75820;SDS011;64454;51.984;9.838;2024-03-23T15:38:24;2.47;;;0.90;;
75820;SDS011;64454;51.984;9.838;2024-03-23T15:40:51;1.38;;;0.95;;